Reportages photos

Connexion

10km

RUN & BIKE EQUIHEN-PLAGE 10Km du 24/05/15 (Reelle 10) Scratch
Rang Dossard Nom Prénom Temps Cat Rang Cat Ecart Ecart Cat Club Vitesse Km/h Temps au Km
1 98 PERARD-LANOY VINCENT-FREDERIC 00:32:03 MASC 1 00:00:00 00:00:00 18,721 03:12
2 91 HALLE-THELLIER ALAN-REMI 00:32:41 MASC 2 00:00:38 00:00:38 18,358 03:16
3 92 QUANDALLE-DELVALLEE VINCENT-ALEXANDRE 00:33:51 MASC 3 00:01:48 00:01:48 17,725 03:23
4 76 PERRIN-PERARD FREDERIC-DAVID 00:34:12 MASC 4 00:02:09 00:02:09 17,544 03:25
5 79 FRANCOIS-ANDRIEUX GILBERT-DIMITRI 00:34:35 MASC 5 00:02:32 00:02:32 17,349 03:28
6 95 MALFOY-DHIEUX JEREMY-REMI 00:34:48 MASC 6 00:02:45 00:02:45 17,241 03:29
7 94 RIFFARD-RIFFARD JEAN-THOMAS 00:35:50 MASC 7 00:03:47 00:03:47 16,744 03:35
8 71 DOCQUOIS-LEPRETRE FREDERIC-CYRILLE 00:36:05 MASC 8 00:04:02 00:04:02 16,628 03:36
9 77 LANGAGNE-B'AHEU GAETAN-ROMAIN 00:36:35 MASC 9 00:04:32 00:04:32 16,401 03:40
10 93 DE BONDUWE-RIFFARD ARNAUD-ALEXIS 00:36:44 MASC 10 00:04:41 00:04:41 16,334 03:40
11 47 HACQUEL-LESCIELLOUR MICHEL-BRUNO 00:37:43 MASC 11 00:05:40 00:05:40 15,908 03:46
12 90 FLIGNY-FLIGNY ARNAUD-ANGELIQUE 00:37:47 MIX 1 00:05:44 00:00:00 15,880 03:47
13 96 LAMOUR-HAGNERE MAXIME-MICKAEL 00:38:05 MASC 12 00:06:02 00:06:02 15,755 03:49
14 74 ROBA-NORMANT VALENTIN-REMY 00:38:07 MASC 13 00:06:04 00:06:04 15,741 03:49
15 89 COLLIER-DEWEER GUILLAUME-NICOLAS 00:38:12 MASC 14 00:06:09 00:06:09 15,707 03:49
16 33 PLANQUE-ROGER FLORENT-JULIE 00:39:01 MIX 2 00:06:58 00:01:14 15,378 03:54
17 37 MILLAMON-VANDOORN NICOLAS-MAXENCE 00:39:49 MASC 15 00:07:46 00:07:46 15,069 03:59
18 99 PAQUES-BOUTILLIER ERIC-MARC 00:40:00 MASC 16 00:07:57 00:07:57 15,000 04:00
19 35 DOCQUOIS-DOCQUOIS MICHEL-FLORIAN 00:40:07 MASC 17 00:08:04 00:08:04 14,956 04:01
20 43 FOUCAULT-VAMBRE PASCAL-SERGIO 00:40:23 MASC 18 00:08:20 00:08:20 14,858 04:02
21 49 MASZOTA-FLAHAUT DARIA-DANIEL 00:40:28 MIX 3 00:08:25 00:02:41 14,827 04:03
22 40 CHARTAUX-LEROUGE RAPHAEL-DAVID 00:40:33 MASC 19 00:08:30 00:08:30 14,797 04:03
23 34 COQUERELLE-MILLAMON CORENTIN-VALENTIN 00:40:57 MASC 20 00:08:54 00:08:54 14,652 04:06
24 78 JOURDANT-JOURDANT OLIVIER-EMMANUELLE 00:41:11 MIX 4 00:09:08 00:03:24 14,569 04:07
25 39 LELEU-LELEU JEAN-FRANCOIS LAURENT 00:41:15 MASC 21 00:09:12 00:09:12 14,545 04:07
26 50 HANON-NAJMI JEAN-PIERRE-AICHA 00:41:26 MIX 5 00:09:23 00:03:39 14,481 04:09
27 36 HARDY-BOULANGER FABIEN-LILIANE 00:41:50 MIX 6 00:09:47 00:04:03 14,343 04:11
28 41 LASSALLE-DRUELLE MELANIE-JULIETTE 00:42:13 FEM 1 00:10:10 00:00:00 14,212 04:13
29 42 FOUCAULT-LAURENT CATHERINE-JOCELYN 00:42:38 MIX 7 00:10:35 00:04:51 14,073 04:16
30 97 HANQUEZ-HANQUEZ EMMANUEL-EMMA 00:42:40 MIX 8 00:10:37 00:04:53 14,063 04:16
31 44 FOUCAULT-DEGOSSE SYLVAIN-SABRINA 00:43:07 MIX 9 00:11:04 00:05:20 13,916 04:19
32 70 HANON-MARIETTE LILIANE-YVETTE 00:43:15 FEM 2 00:11:12 00:01:02 13,873 04:19
33 87 MALFOY-MALFOY JEAN-PIERRE ROMAIN 00:43:39 MASC 22 00:11:36 00:11:36 13,746 04:22
34 46 PHILIPPOT-QUANDALLE LAETITIA-CECILE 00:43:44 FEM 3 00:11:41 00:01:31 13,720 04:22
35 38 CARON MACQUET-RAMET CHRISTOPHE-CAROLINE 00:46:32 MIX 10 00:14:29 00:08:45 12,894 04:39
36 48 FAUQUEMBERGUE-LEBEGUE VERONIQUE-THERESE 00:46:53 FEM 4 00:14:50 00:04:40 12,798 04:41
37 72 BOUTILLIER-BOUILLIEZ CAROLINE-AGATHE 00:47:43 FEM 5 00:15:40 00:05:30 12,574 04:46
38 45 RAY-MAGNIER ISABELLE-REGIS 00:48:25 MIX 11 00:16:22 00:10:38 12,392 04:50
39 80 CARON-DEUNETTE KEVIN-ADELAIDE 00:51:30 MIX 12 00:19:27 00:13:43 11,650 05:09
40 73 MODOLO-STUBERT FANNY-EDWIGE 00:55:06 FEM 6 00:23:03 00:12:53 10,889 05:31
Novembre 2017
Lun Mar Mer Jeu Ven Sam Dim
1
2
3
4
5
6
7
8
9
10
11
12
13
14
15
16
17
18
19
20
21
22
23
24
25
27
28
29
30